Terminal Aerodrome Forecast
Issued by NWS Twin Cities, MN

Home | Current Version | Previous Version | Graphics & Text | Print | Product List | Glossary On
Versions: 1 2 3 4 5 6 7 8 9 10 11 12 13 14 15
000
FTUS43 KMPX 202059 AAA
TAFEAU
TAF AMD
KEAU 202059Z 2021/2118 08012KT 3SM RA BR OVC015
     FM202300 09010KT 6SM BR VCSH OVC007
     FM210600 12006KT 3SM -SHRA BR VCTS OVC007CB
     FM211000 18005KT P6SM SCT007
     FM211400 23009KT P6SM OVC007=

USA.gov is the U.S. government's official web portal to all federal, state and local government web resources and services.